sensor_id;sensor_type;location;lat;lon;timestamp;P1;durP1;ratioP1;P2;durP2;ratioP2
40907;SDS011;51055;59.436;24.778;2024-01-07T17:08:31;45.57;;;25.07;;
40907;SDS011;51055;59.436;24.778;2024-01-07T17:10:59;29.80;;;17.55;;
40907;SDS011;51055;59.436;24.778;2024-01-07T17:13:27;32.25;;;19.58;;
40907;SDS011;51055;59.436;24.778;2024-01-07T17:15:54;31.47;;;17.90;;
40907;SDS011;51055;59.436;24.778;2024-01-07T17:18:22;31.73;;;17.30;;
40907;SDS011;51055;59.436;24.778;2024-01-07T17:20:50;27.23;;;15.70;;
40907;SDS011;51055;59.436;24.778;2024-01-07T17:23:17;32.67;;;18.73;;
40907;SDS011;51055;59.436;24.778;2024-01-07T17:25:49;35.20;;;20.07;;
40907;SDS011;51055;59.436;24.778;2024-01-07T17:28:17;21.92;;;14.40;;
40907;SDS011;51055;59.436;24.778;2024-01-07T17:30:45;25.30;;;15.20;;
40907;SDS011;51055;59.436;24.778;2024-01-07T17:33:13;23.67;;;13.60;;
40907;SDS011;51055;59.436;24.778;2024-01-07T17:35:40;23.10;;;12.93;;
40907;SDS011;51055;59.436;24.778;2024-01-07T17:38:08;24.97;;;13.07;;
40907;SDS011;51055;59.436;24.778;2024-01-07T17:40:36;35.55;;;17.60;;
40907;SDS011;51055;59.436;24.778;2024-01-07T17:43:04;28.05;;;15.07;;
40907;SDS011;51055;59.436;24.778;2024-01-07T17:45:33;34.35;;;17.95;;
40907;SDS011;51055;59.436;24.778;2024-01-07T17:48:00;30.73;;;16.83;;
40907;SDS011;51055;59.436;24.778;2024-01-07T17:50:29;32.00;;;16.50;;
40907;SDS011;51055;59.436;24.778;2024-01-07T17:52:57;24.58;;;13.73;;
40907;SDS011;51055;59.436;24.778;2024-01-07T17:55:26;33.85;;;16.92;;
40907;SDS011;51055;59.436;24.778;2024-01-07T17:57:53;25.63;;;12.65;;
40907;SDS011;51055;59.436;24.778;2024-01-07T18:00:21;33.42;;;16.98;;
40907;SDS011;51055;59.436;24.778;2024-01-07T18:02:50;35.15;;;17.88;;
40907;SDS011;51055;59.436;24.778;2024-01-07T18:05:17;31.70;;;17.43;;
40907;SDS011;51055;59.436;24.778;2024-01-07T18:07:45;31.02;;;17.45;;
40907;SDS011;51055;59.436;24.778;2024-01-07T18:10:13;31.20;;;16.40;;
40907;SDS011;51055;59.436;24.778;2024-01-07T18:12:41;22.10;;;12.45;;
40907;SDS011;51055;59.436;24.778;2024-01-07T18:15:09;20.35;;;11.98;;
40907;SDS011;51055;59.436;24.778;2024-01-07T18:17:37;33.50;;;16.60;;
40907;SDS011;51055;59.436;24.778;2024-01-07T18:20:10;30.33;;;15.63;;
40907;SDS011;51055;59.436;24.778;2024-01-07T18:22:38;29.90;;;16.37;;
40907;SDS011;51055;59.436;24.778;2024-01-07T18:25:07;31.65;;;16.55;;
40907;SDS011;51055;59.436;24.778;2024-01-07T18:27:35;34.65;;;16.67;;
40907;SDS011;51055;59.436;24.778;2024-01-07T18:30:03;23.85;;;12.25;;
40907;SDS011;51055;59.436;24.778;2024-01-07T18:32:32;29.47;;;15.40;;
40907;SDS011;51055;59.436;24.778;2024-01-07T18:35:02;29.43;;;16.80;;
40907;SDS011;51055;59.436;24.778;2024-01-07T18:37:30;24.42;;;14.27;;
40907;SDS011;51055;59.436;24.778;2024-01-07T18:39:58;36.93;;;19.40;;
40907;SDS011;51055;59.436;24.778;2024-01-07T18:42:27;34.63;;;18.63;;
40907;SDS011;51055;59.436;24.778;2024-01-07T18:44:55;26.42;;;14.18;;
40907;SDS011;51055;59.436;24.778;2024-01-07T18:47:23;38.67;;;20.20;;
40907;SDS011;51055;59.436;24.778;2024-01-07T18:49:53;34.47;;;19.20;;
40907;SDS011;51055;59.436;24.778;2024-01-07T18:52:21;35.08;;;18.80;;
40907;SDS011;51055;59.436;24.778;2024-01-07T18:54:49;35.90;;;18.93;;
40907;SDS011;51055;59.436;24.778;2024-01-07T18:57:17;35.28;;;18.70;;
40907;SDS011;51055;59.436;24.778;2024-01-07T18:59:45;30.92;;;17.30;;
40907;SDS011;51055;59.436;24.778;2024-01-07T19:02:12;35.70;;;17.63;;
40907;SDS011;51055;59.436;24.778;2024-01-07T19:04:40;23.17;;;13.30;;
40907;SDS011;51055;59.436;24.778;2024-01-07T19:07:09;31.70;;;16.53;;
40907;SDS011;51055;59.436;24.778;2024-01-07T19:09:37;25.55;;;12.95;;
40907;SDS011;51055;59.436;24.778;2024-01-07T19:14:34;28.98;;;16.20;;
40907;SDS011;51055;59.436;24.778;2024-01-07T19:17:05;34.77;;;17.83;;
40907;SDS011;51055;59.436;24.778;2024-01-07T19:19:34;32.90;;;17.33;;
40907;SDS011;51055;59.436;24.778;2024-01-07T19:22:02;41.88;;;17.95;;
40907;SDS011;51055;59.436;24.778;2024-01-07T19:24:31;36.13;;;17.38;;
40907;SDS011;51055;59.436;24.778;2024-01-07T19:26:59;22.02;;;12.70;;
40907;SDS011;51055;59.436;24.778;2024-01-07T19:29:27;33.05;;;16.13;;
40907;SDS011;51055;59.436;24.778;2024-01-07T19:31:55;30.83;;;15.02;;
40907;SDS011;51055;59.436;24.778;2024-01-07T19:34:22;23.50;;;12.43;;
40907;SDS011;51055;59.436;24.778;2024-01-07T19:36:51;29.40;;;15.68;;
40907;SDS011;51055;59.436;24.778;2024-01-07T19:39:19;20.65;;;11.43;;
40907;SDS011;51055;59.436;24.778;2024-01-07T19:41:46;27.17;;;14.53;;
40907;SDS011;51055;59.436;24.778;2024-01-07T19:44:14;22.65;;;11.85;;
40907;SDS011;51055;59.436;24.778;2024-01-07T19:46:45;27.30;;;15.07;;
40907;SDS011;51055;59.436;24.778;2024-01-07T19:49:13;30.65;;;15.95;;
40907;SDS011;51055;59.436;24.778;2024-01-07T19:51:41;25.87;;;14.77;;
40907;SDS011;51055;59.436;24.778;2024-01-07T19:54:09;28.48;;;15.15;;
40907;SDS011;51055;59.436;24.778;2024-01-07T19:56:37;27.90;;;13.80;;
40907;SDS011;51055;59.436;24.778;2024-01-07T19:59:04;26.60;;;14.27;;
40907;SDS011;51055;59.436;24.778;2024-01-07T20:01:32;25.77;;;13.70;;
40907;SDS011;51055;59.436;24.778;2024-01-07T20:03:59;27.57;;;15.07;;
40907;SDS011;51055;59.436;24.778;2024-01-07T20:06:27;20.67;;;11.07;;
40907;SDS011;51055;59.436;24.778;2024-01-07T20:08:57;61.87;;;26.83;;
40907;SDS011;51055;59.436;24.778;2024-01-07T20:11:24;52.08;;;25.88;;
40907;SDS011;51055;59.436;24.778;2024-01-07T20:13:53;46.60;;;25.48;;
40907;SDS011;51055;59.436;24.778;2024-01-07T20:16:21;22.65;;;14.43;;
40907;SDS011;51055;59.436;24.778;2024-01-07T20:18:49;28.67;;;16.73;;
40907;SDS011;51055;59.436;24.778;2024-01-07T20:21:20;28.10;;;16.20;;
40907;SDS011;51055;59.436;24.778;2024-01-07T20:23:49;44.97;;;19.93;;
40907;SDS011;51055;59.436;24.778;2024-01-07T20:26:18;52.33;;;24.37;;
40907;SDS011;51055;59.436;24.778;2024-01-07T20:28:46;41.53;;;19.00;;
40907;SDS011;51055;59.436;24.778;2024-01-07T20:31:17;37.20;;;17.90;;
40907;SDS011;51055;59.436;24.778;2024-01-07T20:33:45;35.63;;;16.45;;
40907;SDS011;51055;59.436;24.778;2024-01-07T20:36:13;29.63;;;15.55;;
40907;SDS011;51055;59.436;24.778;2024-01-07T20:38:41;40.78;;;17.38;;
40907;SDS011;51055;59.436;24.778;2024-01-07T20:41:10;31.30;;;14.83;;
40907;SDS011;51055;59.436;24.778;2024-01-07T20:43:38;27.73;;;13.88;;
40907;SDS011;51055;59.436;24.778;2024-01-07T20:48:35;21.85;;;10.02;;
40907;SDS011;51055;59.436;24.778;2024-01-07T20:51:06;24.57;;;9.93;;
40907;SDS011;51055;59.436;24.778;2024-01-07T20:56:03;18.13;;;8.43;;
40907;SDS011;51055;59.436;24.778;2024-01-07T20:58:32;17.92;;;9.60;;
40907;SDS011;51055;59.436;24.778;2024-01-07T21:01:00;19.27;;;9.77;;
40907;SDS011;51055;59.436;24.778;2024-01-07T21:03:28;18.50;;;9.67;;
40907;SDS011;51055;59.436;24.778;2024-01-07T21:05:55;21.88;;;10.52;;
40907;SDS011;51055;59.436;24.778;2024-01-07T21:08:27;15.87;;;8.43;;
40907;SDS011;51055;59.436;24.778;2024-01-07T21:10:56;17.67;;;8.87;;
40907;SDS011;51055;59.436;24.778;2024-01-07T21:13:25;19.40;;;9.10;;
40907;SDS011;51055;59.436;24.778;2024-01-07T21:15:53;15.90;;;8.55;;
40907;SDS011;51055;59.436;24.778;2024-01-07T21:18:21;16.88;;;6.95;;
40907;SDS011;51055;59.436;24.778;2024-01-07T21:20:49;18.17;;;7.15;;
40907;SDS011;51055;59.436;24.778;2024-01-07T21:23:17;16.70;;;9.10;;
40907;SDS011;51055;59.436;24.778;2024-01-07T21:28:13;13.07;;;6.78;;
40907;SDS011;51055;59.436;24.778;2024-01-07T21:30:41;18.25;;;9.25;;
40907;SDS011;51055;59.436;24.778;2024-01-07T21:33:09;11.57;;;6.33;;
40907;SDS011;51055;59.436;24.778;2024-01-07T21:35:37;16.13;;;8.63;;
40907;SDS011;51055;59.436;24.778;2024-01-07T21:38:05;15.48;;;7.05;;
40907;SDS011;51055;59.436;24.778;2024-01-07T21:40:34;16.88;;;7.50;;
40907;SDS011;51055;59.436;24.778;2024-01-07T21:43:01;20.38;;;9.30;;
40907;SDS011;51055;59.436;24.778;2024-01-07T21:45:30;14.93;;;7.68;;
40907;SDS011;51055;59.436;24.778;2024-01-07T21:47:58;13.23;;;6.17;;
40907;SDS011;51055;59.436;24.778;2024-01-07T21:50:25;14.27;;;6.77;;
40907;SDS011;51055;59.436;24.778;2024-01-07T21:52:56;16.13;;;7.23;;
40907;SDS011;51055;59.436;24.778;2024-01-07T21:55:24;14.73;;;7.93;;
40907;SDS011;51055;59.436;24.778;2024-01-07T21:57:52;15.57;;;7.50;;
40907;SDS011;51055;59.436;24.778;2024-01-07T22:00:21;14.33;;;6.90;;
40907;SDS011;51055;59.436;24.778;2024-01-07T22:02:49;12.00;;;5.87;;
40907;SDS011;51055;59.436;24.778;2024-01-07T22:05:17;13.67;;;6.70;;
40907;SDS011;51055;59.436;24.778;2024-01-07T22:10:13;12.50;;;5.30;;
40907;SDS011;51055;59.436;24.778;2024-01-07T22:12:41;9.52;;;4.82;;
40907;SDS011;51055;59.436;24.778;2024-01-07T22:15:09;12.95;;;5.03;;
40907;SDS011;51055;59.436;24.778;2024-01-07T22:17:37;14.40;;;6.63;;
40907;SDS011;51055;59.436;24.778;2024-01-07T22:20:06;17.40;;;7.72;;
40907;SDS011;51055;59.436;24.778;2024-01-07T22:22:35;15.30;;;6.80;;
40907;SDS011;51055;59.436;24.778;2024-01-07T22:25:03;13.50;;;6.67;;
40907;SDS011;51055;59.436;24.778;2024-01-07T22:27:31;16.33;;;5.85;;
40907;SDS011;51055;59.436;24.778;2024-01-07T22:30:01;14.27;;;5.97;;
40907;SDS011;51055;59.436;24.778;2024-01-07T22:32:30;14.40;;;6.50;;
40907;SDS011;51055;59.436;24.778;2024-01-07T22:34:58;13.53;;;6.37;;
40907;SDS011;51055;59.436;24.778;2024-01-07T22:37:27;16.30;;;6.37;;
40907;SDS011;51055;59.436;24.778;2024-01-07T22:39:55;11.53;;;5.90;;
40907;SDS011;51055;59.436;24.778;2024-01-07T22:42:23;9.60;;;4.72;;
40907;SDS011;51055;59.436;24.778;2024-01-07T22:44:52;9.95;;;5.10;;
40907;SDS011;51055;59.436;24.778;2024-01-07T22:47:20;11.85;;;5.45;;
40907;SDS011;51055;59.436;24.778;2024-01-07T22:49:48;12.15;;;5.68;;
40907;SDS011;51055;59.436;24.778;2024-01-07T22:52:16;12.15;;;5.47;;
40907;SDS011;51055;59.436;24.778;2024-01-07T22:54:49;11.27;;;5.30;;
40907;SDS011;51055;59.436;24.778;2024-01-07T22:57:16;11.50;;;5.13;;
40907;SDS011;51055;59.436;24.778;2024-01-07T22:59:44;9.57;;;3.95;;
40907;SDS011;51055;59.436;24.778;2024-01-07T23:02:12;7.00;;;3.55;;
40907;SDS011;51055;59.436;24.778;2024-01-07T23:04:42;9.83;;;5.10;;
40907;SDS011;51055;59.436;24.778;2024-01-07T23:07:10;8.77;;;4.15;;
40907;SDS011;51055;59.436;24.778;2024-01-07T23:09:38;8.60;;;4.13;;
40907;SDS011;51055;59.436;24.778;2024-01-07T23:12:06;7.90;;;3.75;;
40907;SDS011;51055;59.436;24.778;2024-01-07T23:14:34;10.18;;;4.20;;
40907;SDS011;51055;59.436;24.778;2024-01-07T23:17:02;9.83;;;4.50;;
40907;SDS011;51055;59.436;24.778;2024-01-07T23:19:30;8.52;;;3.85;;
40907;SDS011;51055;59.436;24.778;2024-01-07T23:21:58;9.48;;;4.00;;
40907;SDS011;51055;59.436;24.778;2024-01-07T23:24:25;7.37;;;3.30;;
40907;SDS011;51055;59.436;24.778;2024-01-07T23:26:53;11.00;;;4.67;;
40907;SDS011;51055;59.436;24.778;2024-01-07T23:29:21;8.43;;;4.50;;
40907;SDS011;51055;59.436;24.778;2024-01-07T23:31:48;8.93;;;4.07;;
40907;SDS011;51055;59.436;24.778;2024-01-07T23:34:16;8.70;;;4.03;;
40907;SDS011;51055;59.436;24.778;2024-01-07T23:36:44;10.50;;;4.60;;
40907;SDS011;51055;59.436;24.778;2024-01-07T23:39:12;10.13;;;4.83;;
40907;SDS011;51055;59.436;24.778;2024-01-07T23:41:40;8.43;;;3.95;;
40907;SDS011;51055;59.436;24.778;2024-01-07T23:44:08;11.03;;;4.67;;
40907;SDS011;51055;59.436;24.778;2024-01-07T23:46:35;10.27;;;5.23;;
40907;SDS011;51055;59.436;24.778;2024-01-07T23:49:05;9.57;;;4.00;;
40907;SDS011;51055;59.436;24.778;2024-01-07T23:51:33;9.60;;;4.80;;
40907;SDS011;51055;59.436;24.778;2024-01-07T23:54:00;7.97;;;4.43;;
40907;SDS011;51055;59.436;24.778;2024-01-07T23:56:28;10.50;;;4.33;;
40907;SDS011;51055;59.436;24.778;2024-01-07T23:59:01;10.30;;;4.63;;
